Hounsfield, New York
Current Conditions -  °F | °C
As of 12:56 AM on Sunday 23 Nov 2014 (Local Time) from KART Reporting Station
Light Rain Light Rain  
Wind Chill: 36°   Ceiling: 1400
Heat Index: 43°   Visibility: 4mi
Dew Point: 38°   Wind: 13mph
Humidity: 82%   Direction: 200°SSW
Pressure: 29.96"   Gusts: 23mph
Location:  43.9321°N, 76.0832°W
Report Text: KART 230556Z AUTO 20011G20KT 4SM -RA OVC014 06/03 A2996 RMK AO2 SLP148 P0003 60011 T00610033 10067 20050 52003
Loading
Personal Weather Stations






























Interactive Weather Map New forecast layout! Learn more

10-Day Weather Forecast

Advertisements
Track Severe Weather on mobile